sensor_id;sensor_type;location;lat;lon;timestamp;temperature;humidity
34766;DHT22;20984;43.508;1.504;2023-04-03T00:00:03;9.30;99.90
34766;DHT22;20984;43.508;1.504;2023-04-03T00:02:29;9.30;99.90
34766;DHT22;20984;43.508;1.504;2023-04-03T00:04:55;9.30;99.90
34766;DHT22;20984;43.508;1.504;2023-04-03T00:07:20;9.20;99.90
34766;DHT22;20984;43.508;1.504;2023-04-03T00:09:46;9.20;99.90
34766;DHT22;20984;43.508;1.504;2023-04-03T00:12:12;9.20;99.90
34766;DHT22;20984;43.508;1.504;2023-04-03T00:14:37;9.20;99.90
34766;DHT22;20984;43.508;1.504;2023-04-03T00:17:03;9.20;99.90
34766;DHT22;20984;43.508;1.504;2023-04-03T00:19:29;9.20;99.90
34766;DHT22;20984;43.508;1.504;2023-04-03T00:21:54;9.20;99.90
34766;DHT22;20984;43.508;1.504;2023-04-03T00:24:20;9.20;99.90
34766;DHT22;20984;43.508;1.504;2023-04-03T00:26:46;9.20;99.90
34766;DHT22;20984;43.508;1.504;2023-04-03T00:29:12;9.20;99.90
34766;DHT22;20984;43.508;1.504;2023-04-03T00:31:37;9.20;99.90
34766;DHT22;20984;43.508;1.504;2023-04-03T00:34:03;9.20;99.90
34766;DHT22;20984;43.508;1.504;2023-04-03T00:36:29;9.20;99.90
34766;DHT22;20984;43.508;1.504;2023-04-03T00:38:54;9.20;99.90
34766;DHT22;20984;43.508;1.504;2023-04-03T00:41:20;9.20;99.90
34766;DHT22;20984;43.508;1.504;2023-04-03T00:43:46;9.20;99.90
34766;DHT22;20984;43.508;1.504;2023-04-03T00:46:12;9.20;99.90
34766;DHT22;20984;43.508;1.504;2023-04-03T00:48:43;9.20;99.90
34766;DHT22;20984;43.508;1.504;2023-04-03T00:51:13;9.20;99.90
34766;DHT22;20984;43.508;1.504;2023-04-03T00:54:09;9.20;99.90
34766;DHT22;20984;43.508;1.504;2023-04-03T00:56:35;9.20;99.90
34766;DHT22;20984;43.508;1.504;2023-04-03T00:59:05;9.20;99.90
34766;DHT22;20984;43.508;1.504;2023-04-03T01:01:32;9.10;99.90
34766;DHT22;20984;43.508;1.504;2023-04-03T01:04:01;9.10;99.90
34766;DHT22;20984;43.508;1.504;2023-04-03T01:06:30;9.10;99.90
34766;DHT22;20984;43.508;1.504;2023-04-03T01:08:58;9.10;99.90
34766;DHT22;20984;43.508;1.504;2023-04-03T01:11:25;9.10;99.90
34766;DHT22;20984;43.508;1.504;2023-04-03T01:13:51;9.10;99.90
34766;DHT22;20984;43.508;1.504;2023-04-03T01:16:18;9.10;99.90
34766;DHT22;20984;43.508;1.504;2023-04-03T01:18:44;9.10;99.90
34766;DHT22;20984;43.508;1.504;2023-04-03T01:21:27;9.10;99.90
34766;DHT22;20984;43.508;1.504;2023-04-03T01:24:27;9.00;99.90
34766;DHT22;20984;43.508;1.504;2023-04-03T01:26:57;9.00;99.90
34766;DHT22;20984;43.508;1.504;2023-04-03T01:29:23;9.00;99.90
34766;DHT22;20984;43.508;1.504;2023-04-03T01:32:01;9.00;99.90
34766;DHT22;20984;43.508;1.504;2023-04-03T01:34:28;9.00;99.90
34766;DHT22;20984;43.508;1.504;2023-04-03T01:36:54;9.00;99.90
34766;DHT22;20984;43.508;1.504;2023-04-03T01:39:21;8.90;99.90
34766;DHT22;20984;43.508;1.504;2023-04-03T01:41:47;8.90;99.90
34766;DHT22;20984;43.508;1.504;2023-04-03T01:44:13;8.90;99.90
34766;DHT22;20984;43.508;1.504;2023-04-03T01:46:39;8.80;99.90
34766;DHT22;20984;43.508;1.504;2023-04-03T01:49:06;8.90;99.90
34766;DHT22;20984;43.508;1.504;2023-04-03T01:51:32;8.80;99.90
34766;DHT22;20984;43.508;1.504;2023-04-03T01:53:58;8.80;99.90
34766;DHT22;20984;43.508;1.504;2023-04-03T01:56:24;8.80;99.90
34766;DHT22;20984;43.508;1.504;2023-04-03T01:58:50;8.80;99.90
34766;DHT22;20984;43.508;1.504;2023-04-03T02:01:16;8.80;99.90
34766;DHT22;20984;43.508;1.504;2023-04-03T02:03:42;8.80;99.90
34766;DHT22;20984;43.508;1.504;2023-04-03T02:06:07;8.80;99.90
34766;DHT22;20984;43.508;1.504;2023-04-03T02:08:33;8.80;99.90
34766;DHT22;20984;43.508;1.504;2023-04-03T02:10:59;8.80;99.90
34766;DHT22;20984;43.508;1.504;2023-04-03T02:13:24;8.70;99.90
34766;DHT22;20984;43.508;1.504;2023-04-03T02:15:50;8.70;99.90
34766;DHT22;20984;43.508;1.504;2023-04-03T02:18:16;8.60;99.90
34766;DHT22;20984;43.508;1.504;2023-04-03T02:20:42;8.50;99.90
34766;DHT22;20984;43.508;1.504;2023-04-03T02:23:08;8.50;99.90
34766;DHT22;20984;43.508;1.504;2023-04-03T02:25:33;8.50;99.90
34766;DHT22;20984;43.508;1.504;2023-04-03T02:27:59;8.40;99.90
34766;DHT22;20984;43.508;1.504;2023-04-03T02:30:25;8.40;99.90
34766;DHT22;20984;43.508;1.504;2023-04-03T02:32:51;8.40;99.90
34766;DHT22;20984;43.508;1.504;2023-04-03T02:35:17;8.40;99.90
34766;DHT22;20984;43.508;1.504;2023-04-03T02:37:42;8.40;99.90
34766;DHT22;20984;43.508;1.504;2023-04-03T02:40:08;8.30;99.90
34766;DHT22;20984;43.508;1.504;2023-04-03T02:42:34;8.40;99.90
34766;DHT22;20984;43.508;1.504;2023-04-03T02:45:00;8.30;99.90
34766;DHT22;20984;43.508;1.504;2023-04-03T02:47:27;8.30;99.90
34766;DHT22;20984;43.508;1.504;2023-04-03T02:49:53;8.30;99.90
34766;DHT22;20984;43.508;1.504;2023-04-03T02:52:19;8.30;99.90
34766;DHT22;20984;43.508;1.504;2023-04-03T02:54:44;8.30;99.90
34766;DHT22;20984;43.508;1.504;2023-04-03T02:57:10;8.30;99.90
34766;DHT22;20984;43.508;1.504;2023-04-03T02:59:36;8.30;99.90
34766;DHT22;20984;43.508;1.504;2023-04-03T03:02:02;8.30;99.90
34766;DHT22;20984;43.508;1.504;2023-04-03T03:04:28;8.30;99.90
34766;DHT22;20984;43.508;1.504;2023-04-03T03:06:53;8.30;99.90
34766;DHT22;20984;43.508;1.504;2023-04-03T03:09:19;8.30;99.90
34766;DHT22;20984;43.508;1.504;2023-04-03T03:11:45;8.30;99.90
34766;DHT22;20984;43.508;1.504;2023-04-03T03:14:10;8.30;99.90
34766;DHT22;20984;43.508;1.504;2023-04-03T03:16:36;8.30;99.90
34766;DHT22;20984;43.508;1.504;2023-04-03T03:19:01;8.20;99.90
34766;DHT22;20984;43.508;1.504;2023-04-03T03:21:27;8.20;99.90
34766;DHT22;20984;43.508;1.504;2023-04-03T03:23:54;8.20;99.90
34766;DHT22;20984;43.508;1.504;2023-04-03T03:26:20;8.20;99.90
34766;DHT22;20984;43.508;1.504;2023-04-03T03:28:46;8.20;99.90
34766;DHT22;20984;43.508;1.504;2023-04-03T03:31:11;8.20;99.90
34766;DHT22;20984;43.508;1.504;2023-04-03T03:33:37;8.30;99.90
34766;DHT22;20984;43.508;1.504;2023-04-03T03:36:03;8.20;99.90
34766;DHT22;20984;43.508;1.504;2023-04-03T03:38:29;8.30;99.90
34766;DHT22;20984;43.508;1.504;2023-04-03T03:40:55;8.30;99.90
34766;DHT22;20984;43.508;1.504;2023-04-03T03:43:20;8.30;99.90
34766;DHT22;20984;43.508;1.504;2023-04-03T03:45:51;8.30;99.90
34766;DHT22;20984;43.508;1.504;2023-04-03T03:48:17;8.30;99.90
34766;DHT22;20984;43.508;1.504;2023-04-03T03:50:43;8.30;99.90
34766;DHT22;20984;43.508;1.504;2023-04-03T03:53:09;8.30;99.90
34766;DHT22;20984;43.508;1.504;2023-04-03T03:55:35;8.30;99.90
34766;DHT22;20984;43.508;1.504;2023-04-03T03:58:00;8.30;99.90
34766;DHT22;20984;43.508;1.504;2023-04-03T04:00:27;8.30;99.90
34766;DHT22;20984;43.508;1.504;2023-04-03T04:02:53;8.30;99.90
34766;DHT22;20984;43.508;1.504;2023-04-03T04:05:18;8.30;99.90
34766;DHT22;20984;43.508;1.504;2023-04-03T04:07:45;8.30;99.90
34766;DHT22;20984;43.508;1.504;2023-04-03T04:10:10;8.40;99.90
34766;DHT22;20984;43.508;1.504;2023-04-03T04:12:36;8.40;99.90
34766;DHT22;20984;43.508;1.504;2023-04-03T04:15:03;8.40;99.90
34766;DHT22;20984;43.508;1.504;2023-04-03T04:17:28;8.40;99.90
34766;DHT22;20984;43.508;1.504;2023-04-03T04:19:54;8.40;99.90
34766;DHT22;20984;43.508;1.504;2023-04-03T04:22:20;8.40;99.90
34766;DHT22;20984;43.508;1.504;2023-04-03T04:24:45;8.40;99.90
34766;DHT22;20984;43.508;1.504;2023-04-03T04:27:11;8.40;99.90
34766;DHT22;20984;43.508;1.504;2023-04-03T04:29:37;8.40;99.90
34766;DHT22;20984;43.508;1.504;2023-04-03T04:32:03;8.40;99.90
34766;DHT22;20984;43.508;1.504;2023-04-03T04:34:29;8.40;99.90
34766;DHT22;20984;43.508;1.504;2023-04-03T04:36:55;8.40;99.90
34766;DHT22;20984;43.508;1.504;2023-04-03T04:39:21;8.40;99.90
34766;DHT22;20984;43.508;1.504;2023-04-03T04:41:46;8.40;99.90
34766;DHT22;20984;43.508;1.504;2023-04-03T04:44:12;8.40;99.90
34766;DHT22;20984;43.508;1.504;2023-04-03T04:46:38;8.40;99.90
34766;DHT22;20984;43.508;1.504;2023-04-03T04:49:03;8.30;99.90
34766;DHT22;20984;43.508;1.504;2023-04-03T04:51:29;8.30;99.90
34766;DHT22;20984;43.508;1.504;2023-04-03T04:53:54;8.30;99.90
34766;DHT22;20984;43.508;1.504;2023-04-03T04:56:20;8.30;99.90
34766;DHT22;20984;43.508;1.504;2023-04-03T04:58:46;8.30;99.90
34766;DHT22;20984;43.508;1.504;2023-04-03T05:01:11;8.40;99.90
34766;DHT22;20984;43.508;1.504;2023-04-03T05:03:37;8.40;99.90
34766;DHT22;20984;43.508;1.504;2023-04-03T05:06:03;8.40;99.90
34766;DHT22;20984;43.508;1.504;2023-04-03T05:08:29;8.40;99.90
34766;DHT22;20984;43.508;1.504;2023-04-03T05:10:55;8.40;99.90
34766;DHT22;20984;43.508;1.504;2023-04-03T05:13:20;8.40;99.90
34766;DHT22;20984;43.508;1.504;2023-04-03T05:15:47;8.40;99.90
34766;DHT22;20984;43.508;1.504;2023-04-03T05:18:13;8.40;99.90
34766;DHT22;20984;43.508;1.504;2023-04-03T05:20:39;8.40;99.90
34766;DHT22;20984;43.508;1.504;2023-04-03T05:23:05;8.40;99.90
34766;DHT22;20984;43.508;1.504;2023-04-03T05:25:31;8.40;99.90
34766;DHT22;20984;43.508;1.504;2023-04-03T05:27:56;8.40;99.90
34766;DHT22;20984;43.508;1.504;2023-04-03T05:30:22;8.40;99.90
34766;DHT22;20984;43.508;1.504;2023-04-03T05:32:48;8.40;99.90
34766;DHT22;20984;43.508;1.504;2023-04-03T05:35:14;8.30;99.90
34766;DHT22;20984;43.508;1.504;2023-04-03T05:37:40;8.30;99.90
34766;DHT22;20984;43.508;1.504;2023-04-03T05:40:06;8.30;99.90
34766;DHT22;20984;43.508;1.504;2023-04-03T05:42:33;8.30;99.90
34766;DHT22;20984;43.508;1.504;2023-04-03T05:44:58;8.30;99.90
34766;DHT22;20984;43.508;1.504;2023-04-03T05:47:24;8.30;99.90
34766;DHT22;20984;43.508;1.504;2023-04-03T05:49:50;8.40;99.90
34766;DHT22;20984;43.508;1.504;2023-04-03T05:52:37;8.40;99.90
34766;DHT22;20984;43.508;1.504;2023-04-03T05:55:03;8.40;99.90
34766;DHT22;20984;43.508;1.504;2023-04-03T05:57:29;8.40;99.90
34766;DHT22;20984;43.508;1.504;2023-04-03T05:59:55;8.40;99.90
34766;DHT22;20984;43.508;1.504;2023-04-03T06:02:22;8.40;99.90
34766;DHT22;20984;43.508;1.504;2023-04-03T06:04:48;8.40;99.90
34766;DHT22;20984;43.508;1.504;2023-04-03T06:07:16;8.50;99.90
34766;DHT22;20984;43.508;1.504;2023-04-03T06:09:43;8.50;99.90
34766;DHT22;20984;43.508;1.504;2023-04-03T06:12:09;8.50;99.90
34766;DHT22;20984;43.508;1.504;2023-04-03T06:14:35;8.50;99.90
34766;DHT22;20984;43.508;1.504;2023-04-03T06:17:01;8.50;99.90
34766;DHT22;20984;43.508;1.504;2023-04-03T06:19:27;8.50;99.90
34766;DHT22;20984;43.508;1.504;2023-04-03T06:21:53;8.50;99.90
34766;DHT22;20984;43.508;1.504;2023-04-03T06:24:19;8.50;99.90
34766;DHT22;20984;43.508;1.504;2023-04-03T06:26:47;8.50;99.90
34766;DHT22;20984;43.508;1.504;2023-04-03T06:29:12;8.50;99.90
34766;DHT22;20984;43.508;1.504;2023-04-03T06:31:38;8.60;99.90
34766;DHT22;20984;43.508;1.504;2023-04-03T06:34:04;8.60;99.90
34766;DHT22;20984;43.508;1.504;2023-04-03T06:36:31;8.60;99.90
34766;DHT22;20984;43.508;1.504;2023-04-03T06:38:57;8.60;99.90
34766;DHT22;20984;43.508;1.504;2023-04-03T06:41:23;8.60;99.90
34766;DHT22;20984;43.508;1.504;2023-04-03T06:43:48;8.70;99.90
34766;DHT22;20984;43.508;1.504;2023-04-03T06:46:15;8.70;99.90
34766;DHT22;20984;43.508;1.504;2023-04-03T06:48:42;8.60;99.90
34766;DHT22;20984;43.508;1.504;2023-04-03T06:51:18;8.70;99.90
34766;DHT22;20984;43.508;1.504;2023-04-03T06:53:46;8.70;99.90
34766;DHT22;20984;43.508;1.504;2023-04-03T06:56:12;8.70;99.90
34766;DHT22;20984;43.508;1.504;2023-04-03T06:58:38;8.80;99.90
34766;DHT22;20984;43.508;1.504;2023-04-03T07:01:04;8.80;99.90
34766;DHT22;20984;43.508;1.504;2023-04-03T07:03:30;8.80;99.90
34766;DHT22;20984;43.508;1.504;2023-04-03T07:05:55;8.80;99.90
34766;DHT22;20984;43.508;1.504;2023-04-03T07:08:21;8.80;99.90
34766;DHT22;20984;43.508;1.504;2023-04-03T07:10:48;8.90;99.90
34766;DHT22;20984;43.508;1.504;2023-04-03T07:13:15;8.90;99.90
34766;DHT22;20984;43.508;1.504;2023-04-03T07:15:41;8.90;99.90
34766;DHT22;20984;43.508;1.504;2023-04-03T07:18:06;9.00;99.90
34766;DHT22;20984;43.508;1.504;2023-04-03T07:20:33;9.00;99.90
34766;DHT22;20984;43.508;1.504;2023-04-03T07:22:58;9.00;99.90
34766;DHT22;20984;43.508;1.504;2023-04-03T07:25:25;9.10;99.90
34766;DHT22;20984;43.508;1.504;2023-04-03T07:27:50;9.10;99.90
34766;DHT22;20984;43.508;1.504;2023-04-03T07:30:16;9.10;99.90
34766;DHT22;20984;43.508;1.504;2023-04-03T07:32:42;9.10;99.90
34766;DHT22;20984;43.508;1.504;2023-04-03T07:35:08;9.20;99.90
34766;DHT22;20984;43.508;1.504;2023-04-03T07:37:33;9.20;99.90
34766;DHT22;20984;43.508;1.504;2023-04-03T07:39:59;9.20;99.90
34766;DHT22;20984;43.508;1.504;2023-04-03T07:42:26;9.30;99.90
34766;DHT22;20984;43.508;1.504;2023-04-03T07:44:53;9.30;99.90
34766;DHT22;20984;43.508;1.504;2023-04-03T07:47:19;9.30;99.90
34766;DHT22;20984;43.508;1.504;2023-04-03T07:49:45;9.30;99.90
34766;DHT22;20984;43.508;1.504;2023-04-03T07:52:11;9.30;99.90
34766;DHT22;20984;43.508;1.504;2023-04-03T07:54:37;9.30;99.90
34766;DHT22;20984;43.508;1.504;2023-04-03T07:57:03;9.40;99.90
34766;DHT22;20984;43.508;1.504;2023-04-03T07:59:29;9.50;99.90
34766;DHT22;20984;43.508;1.504;2023-04-03T08:01:55;9.50;99.90
34766;DHT22;20984;43.508;1.504;2023-04-03T08:04:22;9.60;99.90
34766;DHT22;20984;43.508;1.504;2023-04-03T08:06:47;9.70;99.90
34766;DHT22;20984;43.508;1.504;2023-04-03T08:09:15;9.70;99.90
34766;DHT22;20984;43.508;1.504;2023-04-03T08:11:41;9.80;99.90
34766;DHT22;20984;43.508;1.504;2023-04-03T08:14:06;9.80;99.90
34766;DHT22;20984;43.508;1.504;2023-04-03T08:16:32;9.90;99.90
34766;DHT22;20984;43.508;1.504;2023-04-03T08:18:58;9.90;99.90
34766;DHT22;20984;43.508;1.504;2023-04-03T08:21:24;10.00;99.90
34766;DHT22;20984;43.508;1.504;2023-04-03T08:23:51;10.00;99.90
34766;DHT22;20984;43.508;1.504;2023-04-03T08:26:19;10.10;99.90
34766;DHT22;20984;43.508;1.504;2023-04-03T08:28:46;10.20;99.90
34766;DHT22;20984;43.508;1.504;2023-04-03T08:31:14;10.30;99.90
34766;DHT22;20984;43.508;1.504;2023-04-03T08:33:40;10.60;99.90
34766;DHT22;20984;43.508;1.504;2023-04-03T08:36:16;10.60;99.90
34766;DHT22;20984;43.508;1.504;2023-04-03T08:38:41;10.50;99.90
34766;DHT22;20984;43.508;1.504;2023-04-03T08:52:36;10.50;99.90
34766;DHT22;20984;43.508;1.504;2023-04-03T08:55:27;10.60;99.90
34766;DHT22;20984;43.508;1.504;2023-04-03T08:58:12;10.70;99.90
34766;DHT22;20984;43.508;1.504;2023-04-03T09:00:45;10.80;99.90
34766;DHT22;20984;43.508;1.504;2023-04-03T09:03:13;11.00;99.90
34766;DHT22;20984;43.508;1.504;2023-04-03T09:05:43;11.00;99.90
34766;DHT22;20984;43.508;1.504;2023-04-03T09:11:06;10.80;99.90
34766;DHT22;20984;43.508;1.504;2023-04-03T09:13:59;10.80;99.90
34766;DHT22;20984;43.508;1.504;2023-04-03T09:16:39;11.00;99.90
34766;DHT22;20984;43.508;1.504;2023-04-03T09:19:23;11.00;99.90
34766;DHT22;20984;43.508;1.504;2023-04-03T09:21:53;11.00;99.90
34766;DHT22;20984;43.508;1.504;2023-04-03T09:24:20;11.10;99.90
34766;DHT22;20984;43.508;1.504;2023-04-03T09:27:01;11.00;99.90
34766;DHT22;20984;43.508;1.504;2023-04-03T09:29:29;11.20;99.90
34766;DHT22;20984;43.508;1.504;2023-04-03T09:32:02;11.30;99.90
34766;DHT22;20984;43.508;1.504;2023-04-03T09:34:39;11.30;99.90
34766;DHT22;20984;43.508;1.504;2023-04-03T09:37:07;11.20;99.90
34766;DHT22;20984;43.508;1.504;2023-04-03T09:39:53;11.40;99.90
34766;DHT22;20984;43.508;1.504;2023-04-03T09:42:24;11.70;99.90
34766;DHT22;20984;43.508;1.504;2023-04-03T09:44:57;12.00;99.90
34766;DHT22;20984;43.508;1.504;2023-04-03T09:47:28;12.10;99.90
34766;DHT22;20984;43.508;1.504;2023-04-03T09:52:46;11.90;99.90
34766;DHT22;20984;43.508;1.504;2023-04-03T09:55:23;11.80;99.90
34766;DHT22;20984;43.508;1.504;2023-04-03T09:58:01;11.80;99.90
34766;DHT22;20984;43.508;1.504;2023-04-03T10:00:35;11.80;99.90
34766;DHT22;20984;43.508;1.504;2023-04-03T10:03:01;11.80;99.90
34766;DHT22;20984;43.508;1.504;2023-04-03T10:05:36;11.80;99.90
34766;DHT22;20984;43.508;1.504;2023-04-03T10:10:45;12.40;99.90
34766;DHT22;20984;43.508;1.504;2023-04-03T10:15:51;12.80;99.90
34766;DHT22;20984;43.508;1.504;2023-04-03T10:18:31;12.90;99.90
34766;DHT22;20984;43.508;1.504;2023-04-03T10:21:06;12.80;99.90
34766;DHT22;20984;43.508;1.504;2023-04-03T10:23:45;12.70;99.90
34766;DHT22;20984;43.508;1.504;2023-04-03T10:26:36;12.80;99.90
34766;DHT22;20984;43.508;1.504;2023-04-03T10:32:01;12.70;99.90
34766;DHT22;20984;43.508;1.504;2023-04-03T10:34:37;12.60;99.90
34766;DHT22;20984;43.508;1.504;2023-04-03T10:40:02;12.90;99.90
34766;DHT22;20984;43.508;1.504;2023-04-03T10:43:18;12.90;99.90
34766;DHT22;20984;43.508;1.504;2023-04-03T10:45:44;12.70;99.90
34766;DHT22;20984;43.508;1.504;2023-04-03T10:48:36;12.60;99.90
34766;DHT22;20984;43.508;1.504;2023-04-03T11:01:42;12.70;99.90
34766;DHT22;20984;43.508;1.504;2023-04-03T11:04:10;12.60;99.90
34766;DHT22;20984;43.508;1.504;2023-04-03T11:06:45;12.50;99.90
34766;DHT22;20984;43.508;1.504;2023-04-03T11:12:16;12.30;99.90
34766;DHT22;20984;43.508;1.504;2023-04-03T11:14:39;12.30;99.90
34766;DHT22;20984;43.508;1.504;2023-04-03T11:17:39;12.30;99.90
34766;DHT22;20984;43.508;1.504;2023-04-03T11:20:29;12.20;99.90
34766;DHT22;20984;43.508;1.504;2023-04-03T11:25:31;12.10;99.90
34766;DHT22;20984;43.508;1.504;2023-04-03T11:27:59;12.10;99.90
34766;DHT22;20984;43.508;1.504;2023-04-03T11:35:45;12.40;99.90
34766;DHT22;20984;43.508;1.504;2023-04-03T11:38:33;12.40;99.90
34766;DHT22;20984;43.508;1.504;2023-04-03T11:41:03;12.40;99.90
34766;DHT22;20984;43.508;1.504;2023-04-03T11:43:31;12.50;99.90
34766;DHT22;20984;43.508;1.504;2023-04-03T11:46:03;12.60;99.90
34766;DHT22;20984;43.508;1.504;2023-04-03T11:51:00;12.70;99.90
34766;DHT22;20984;43.508;1.504;2023-04-03T11:55:59;12.50;99.90
34766;DHT22;20984;43.508;1.504;2023-04-03T11:58:33;12.40;99.90
34766;DHT22;20984;43.508;1.504;2023-04-03T12:01:11;12.20;99.90
34766;DHT22;20984;43.508;1.504;2023-04-03T12:16:05;12.30;99.90
34766;DHT22;20984;43.508;1.504;2023-04-03T12:21:23;12.50;99.90
34766;DHT22;20984;43.508;1.504;2023-04-03T12:24:24;12.80;99.90
34766;DHT22;20984;43.508;1.504;2023-04-03T12:43:13;13.90;99.90
34766;DHT22;20984;43.508;1.504;2023-04-03T12:48:32;14.00;99.90
34766;DHT22;20984;43.508;1.504;2023-04-03T12:50:59;14.00;99.90
34766;DHT22;20984;43.508;1.504;2023-04-03T12:53:28;14.00;99.90
34766;DHT22;20984;43.508;1.504;2023-04-03T12:56:25;14.00;99.90
34766;DHT22;20984;43.508;1.504;2023-04-03T12:58:53;14.10;99.90
34766;DHT22;20984;43.508;1.504;2023-04-03T13:01:26;14.00;99.90
34766;DHT22;20984;43.508;1.504;2023-04-03T13:03:58;13.90;99.90
34766;DHT22;20984;43.508;1.504;2023-04-03T13:06:39;13.90;99.90
34766;DHT22;20984;43.508;1.504;2023-04-03T13:09:17;14.10;99.90
34766;DHT22;20984;43.508;1.504;2023-04-03T13:11:44;14.10;99.90
34766;DHT22;20984;43.508;1.504;2023-04-03T13:14:24;14.20;99.90
34766;DHT22;20984;43.508;1.504;2023-04-03T13:16:57;14.30;99.90
34766;DHT22;20984;43.508;1.504;2023-04-03T13:19:25;14.30;99.90
34766;DHT22;20984;43.508;1.504;2023-04-03T13:24:23;14.10;99.90
34766;DHT22;20984;43.508;1.504;2023-04-03T13:26:51;13.90;99.90
34766;DHT22;20984;43.508;1.504;2023-04-03T13:29:24;13.80;99.90
34766;DHT22;20984;43.508;1.504;2023-04-03T13:31:53;13.80;99.90
34766;DHT22;20984;43.508;1.504;2023-04-03T13:34:21;13.60;99.90
34766;DHT22;20984;43.508;1.504;2023-04-03T13:41:58;13.60;99.90
34766;DHT22;20984;43.508;1.504;2023-04-03T13:44:37;13.80;99.90
34766;DHT22;20984;43.508;1.504;2023-04-03T13:47:15;13.90;99.90
34766;DHT22;20984;43.508;1.504;2023-04-03T13:50:26;14.10;99.90
34766;DHT22;20984;43.508;1.504;2023-04-03T13:55:18;14.50;99.90
34766;DHT22;20984;43.508;1.504;2023-04-03T13:57:58;14.70;99.90
34766;DHT22;20984;43.508;1.504;2023-04-03T14:03:31;14.80;99.90
34766;DHT22;20984;43.508;1.504;2023-04-03T14:05:57;14.80;99.90
34766;DHT22;20984;43.508;1.504;2023-04-03T14:08:23;14.70;99.90
34766;DHT22;20984;43.508;1.504;2023-04-03T14:10:49;14.80;99.90
34766;DHT22;20984;43.508;1.504;2023-04-03T14:13:17;14.50;99.90
34766;DHT22;20984;43.508;1.504;2023-04-03T14:15:44;14.50;99.90
34766;DHT22;20984;43.508;1.504;2023-04-03T14:18:12;14.50;99.90
34766;DHT22;20984;43.508;1.504;2023-04-03T14:20:38;14.60;99.90
34766;DHT22;20984;43.508;1.504;2023-04-03T14:23:04;14.60;99.90
34766;DHT22;20984;43.508;1.504;2023-04-03T14:25:30;14.60;99.90
34766;DHT22;20984;43.508;1.504;2023-04-03T14:27:56;14.60;99.90
34766;DHT22;20984;43.508;1.504;2023-04-03T14:30:28;14.70;99.90
34766;DHT22;20984;43.508;1.504;2023-04-03T14:32:54;14.60;99.90
34766;DHT22;20984;43.508;1.504;2023-04-03T14:35:21;14.60;99.90
34766;DHT22;20984;43.508;1.504;2023-04-03T14:37:48;14.50;99.90
34766;DHT22;20984;43.508;1.504;2023-04-03T14:40:21;14.30;99.90
34766;DHT22;20984;43.508;1.504;2023-04-03T14:42:47;14.00;99.90
34766;DHT22;20984;43.508;1.504;2023-04-03T14:45:15;13.80;99.90
34766;DHT22;20984;43.508;1.504;2023-04-03T14:47:54;13.60;99.90
34766;DHT22;20984;43.508;1.504;2023-04-03T14:50:26;13.50;99.90
34766;DHT22;20984;43.508;1.504;2023-04-03T14:52:54;13.50;99.90
34766;DHT22;20984;43.508;1.504;2023-04-03T14:55:22;13.40;99.90
34766;DHT22;20984;43.508;1.504;2023-04-03T14:57:48;13.50;99.90
34766;DHT22;20984;43.508;1.504;2023-04-03T15:00:20;13.50;99.90
34766;DHT22;20984;43.508;1.504;2023-04-03T15:02:46;13.50;99.90
34766;DHT22;20984;43.508;1.504;2023-04-03T15:05:13;13.40;99.90
34766;DHT22;20984;43.508;1.504;2023-04-03T15:07:42;13.40;99.90
34766;DHT22;20984;43.508;1.504;2023-04-03T15:12:40;13.30;99.90
34766;DHT22;20984;43.508;1.504;2023-04-03T15:15:07;13.30;99.90
34766;DHT22;20984;43.508;1.504;2023-04-03T15:17:34;13.30;99.90
34766;DHT22;20984;43.508;1.504;2023-04-03T15:20:00;13.40;99.90
34766;DHT22;20984;43.508;1.504;2023-04-03T15:22:26;13.50;99.90
34766;DHT22;20984;43.508;1.504;2023-04-03T15:24:51;13.60;99.90
34766;DHT22;20984;43.508;1.504;2023-04-03T15:27:17;13.60;99.90
34766;DHT22;20984;43.508;1.504;2023-04-03T15:29:44;13.60;99.90
34766;DHT22;20984;43.508;1.504;2023-04-03T15:32:10;13.60;99.90
34766;DHT22;20984;43.508;1.504;2023-04-03T15:34:37;13.80;99.90
34766;DHT22;20984;43.508;1.504;2023-04-03T15:37:02;13.70;99.90
34766;DHT22;20984;43.508;1.504;2023-04-03T15:39:28;13.70;99.90
34766;DHT22;20984;43.508;1.504;2023-04-03T15:41:55;13.70;99.90
34766;DHT22;20984;43.508;1.504;2023-04-03T15:44:21;13.60;99.90
34766;DHT22;20984;43.508;1.504;2023-04-03T15:46:47;13.70;99.90
34766;DHT22;20984;43.508;1.504;2023-04-03T15:49:14;13.80;99.90
34766;DHT22;20984;43.508;1.504;2023-04-03T15:51:40;14.00;99.90
34766;DHT22;20984;43.508;1.504;2023-04-03T15:54:06;14.10;99.90
34766;DHT22;20984;43.508;1.504;2023-04-03T15:56:32;14.20;99.90
34766;DHT22;20984;43.508;1.504;2023-04-03T15:58:57;14.20;99.90
34766;DHT22;20984;43.508;1.504;2023-04-03T16:01:23;14.20;99.90
34766;DHT22;20984;43.508;1.504;2023-04-03T16:03:49;14.20;99.90
34766;DHT22;20984;43.508;1.504;2023-04-03T16:06:15;14.10;99.90
34766;DHT22;20984;43.508;1.504;2023-04-03T16:08:42;14.10;99.90
34766;DHT22;20984;43.508;1.504;2023-04-03T16:11:08;14.10;99.90
34766;DHT22;20984;43.508;1.504;2023-04-03T16:13:35;13.90;99.90
34766;DHT22;20984;43.508;1.504;2023-04-03T16:16:01;13.80;99.90
34766;DHT22;20984;43.508;1.504;2023-04-03T16:18:28;13.80;99.90
34766;DHT22;20984;43.508;1.504;2023-04-03T16:20:54;13.70;99.90
34766;DHT22;20984;43.508;1.504;2023-04-03T16:23:20;13.80;99.90
34766;DHT22;20984;43.508;1.504;2023-04-03T16:25:47;13.90;99.90
34766;DHT22;20984;43.508;1.504;2023-04-03T16:28:13;14.10;99.90
34766;DHT22;20984;43.508;1.504;2023-04-03T16:30:41;14.30;99.90
34766;DHT22;20984;43.508;1.504;2023-04-03T16:33:07;14.40;99.90
34766;DHT22;20984;43.508;1.504;2023-04-03T16:35:34;14.40;99.90
34766;DHT22;20984;43.508;1.504;2023-04-03T16:38:00;14.40;99.90
34766;DHT22;20984;43.508;1.504;2023-04-03T16:40:25;14.20;99.90
34766;DHT22;20984;43.508;1.504;2023-04-03T16:42:51;14.10;99.90
34766;DHT22;20984;43.508;1.504;2023-04-03T16:45:17;14.10;99.90
34766;DHT22;20984;43.508;1.504;2023-04-03T16:47:42;13.90;99.90
34766;DHT22;20984;43.508;1.504;2023-04-03T16:50:09;13.80;99.90
34766;DHT22;20984;43.508;1.504;2023-04-03T16:52:35;13.80;99.90
34766;DHT22;20984;43.508;1.504;2023-04-03T16:55:01;13.70;99.90
34766;DHT22;20984;43.508;1.504;2023-04-03T16:57:27;13.60;99.90
34766;DHT22;20984;43.508;1.504;2023-04-03T16:59:53;13.60;99.90
34766;DHT22;20984;43.508;1.504;2023-04-03T17:02:20;13.40;99.90
34766;DHT22;20984;43.508;1.504;2023-04-03T17:04:46;13.40;99.90
34766;DHT22;20984;43.508;1.504;2023-04-03T17:07:11;13.30;99.90
34766;DHT22;20984;43.508;1.504;2023-04-03T17:09:37;13.10;99.90
34766;DHT22;20984;43.508;1.504;2023-04-03T17:12:03;13.10;99.90
34766;DHT22;20984;43.508;1.504;2023-04-03T17:14:29;12.90;99.90
34766;DHT22;20984;43.508;1.504;2023-04-03T17:16:55;12.80;99.90
34766;DHT22;20984;43.508;1.504;2023-04-03T17:19:21;12.60;99.90
34766;DHT22;20984;43.508;1.504;2023-04-03T17:21:48;12.60;99.90
34766;DHT22;20984;43.508;1.504;2023-04-03T17:24:14;12.50;99.90
34766;DHT22;20984;43.508;1.504;2023-04-03T17:26:40;12.50;99.90
34766;DHT22;20984;43.508;1.504;2023-04-03T17:29:06;12.40;99.90
34766;DHT22;20984;43.508;1.504;2023-04-03T17:31:32;12.30;99.90